sensor_id;sensor_type;location;lat;lon;timestamp;P1;durP1;ratioP1;P2;durP2;ratioP2
34035;SDS011;63481;52.588;22.472;2023-12-20T00:02:51;9.30;;;5.30;;
34035;SDS011;63481;52.588;22.472;2023-12-20T00:07:53;9.50;;;4.90;;
34035;SDS011;63481;52.588;22.472;2023-12-20T00:12:55;8.70;;;4.70;;
34035;SDS011;63481;52.588;22.472;2023-12-20T00:17:57;10.10;;;5.30;;
34035;SDS011;63481;52.588;22.472;2023-12-20T00:22:59;7.40;;;4.30;;
34035;SDS011;63481;52.588;22.472;2023-12-20T00:28:01;9.10;;;4.70;;
34035;SDS011;63481;52.588;22.472;2023-12-20T00:33:04;8.70;;;3.70;;
34035;SDS011;63481;52.588;22.472;2023-12-20T00:38:06;10.10;;;5.30;;
34035;SDS011;63481;52.588;22.472;2023-12-20T00:43:08;9.00;;;4.40;;
34035;SDS011;63481;52.588;22.472;2023-12-20T00:48:10;9.60;;;4.40;;
34035;SDS011;63481;52.588;22.472;2023-12-20T00:53:12;7.50;;;4.00;;
34035;SDS011;63481;52.588;22.472;2023-12-20T00:58:15;8.40;;;4.10;;
34035;SDS011;63481;52.588;22.472;2023-12-20T01:03:17;7.90;;;4.30;;
34035;SDS011;63481;52.588;22.472;2023-12-20T01:08:19;10.00;;;4.30;;
34035;SDS011;63481;52.588;22.472;2023-12-20T01:13:21;9.10;;;4.80;;
34035;SDS011;63481;52.588;22.472;2023-12-20T01:18:23;10.00;;;3.90;;
34035;SDS011;63481;52.588;22.472;2023-12-20T01:23:25;5.90;;;3.60;;
34035;SDS011;63481;52.588;22.472;2023-12-20T01:28:27;5.30;;;3.10;;
34035;SDS011;63481;52.588;22.472;2023-12-20T01:33:29;7.40;;;3.80;;
34035;SDS011;63481;52.588;22.472;2023-12-20T01:38:31;6.10;;;3.80;;
34035;SDS011;63481;52.588;22.472;2023-12-20T01:43:33;7.00;;;3.50;;
34035;SDS011;63481;52.588;22.472;2023-12-20T01:48:35;7.10;;;3.70;;
34035;SDS011;63481;52.588;22.472;2023-12-20T01:53:38;6.80;;;3.40;;
34035;SDS011;63481;52.588;22.472;2023-12-20T01:58:45;7.20;;;3.60;;
34035;SDS011;63481;52.588;22.472;2023-12-20T02:03:49;6.60;;;2.70;;
34035;SDS011;63481;52.588;22.472;2023-12-20T02:08:51;6.80;;;3.30;;
34035;SDS011;63481;52.588;22.472;2023-12-20T02:13:53;6.60;;;2.70;;
34035;SDS011;63481;52.588;22.472;2023-12-20T02:18:55;4.10;;;2.30;;
34035;SDS011;63481;52.588;22.472;2023-12-20T02:23:57;5.70;;;3.10;;
34035;SDS011;63481;52.588;22.472;2023-12-20T02:28:59;3.80;;;2.00;;
34035;SDS011;63481;52.588;22.472;2023-12-20T02:34:02;6.10;;;3.30;;
34035;SDS011;63481;52.588;22.472;2023-12-20T02:39:04;2.90;;;2.30;;
34035;SDS011;63481;52.588;22.472;2023-12-20T02:44:06;2.90;;;2.00;;
34035;SDS011;63481;52.588;22.472;2023-12-20T02:49:08;10.00;;;2.40;;
34035;SDS011;63481;52.588;22.472;2023-12-20T02:54:10;4.00;;;1.70;;
34035;SDS011;63481;52.588;22.472;2023-12-20T02:59:12;3.20;;;1.80;;
34035;SDS011;63481;52.588;22.472;2023-12-20T03:04:14;1.70;;;1.50;;
34035;SDS011;63481;52.588;22.472;2023-12-20T03:09:16;2.80;;;2.00;;
34035;SDS011;63481;52.588;22.472;2023-12-20T03:14:18;1.70;;;1.40;;
34035;SDS011;63481;52.588;22.472;2023-12-20T03:19:20;1.50;;;1.40;;
34035;SDS011;63481;52.588;22.472;2023-12-20T03:24:22;1.70;;;1.50;;
34035;SDS011;63481;52.588;22.472;2023-12-20T03:29:24;2.30;;;1.90;;
34035;SDS011;63481;52.588;22.472;2023-12-20T03:34:26;3.90;;;2.30;;
34035;SDS011;63481;52.588;22.472;2023-12-20T03:39:28;4.20;;;1.90;;
34035;SDS011;63481;52.588;22.472;2023-12-20T03:44:30;1.60;;;1.50;;
34035;SDS011;63481;52.588;22.472;2023-12-20T03:49:32;5.90;;;2.50;;
34035;SDS011;63481;52.588;22.472;2023-12-20T03:54:37;5.10;;;2.50;;
34035;SDS011;63481;52.588;22.472;2023-12-20T03:59:39;3.70;;;2.00;;
34035;SDS011;63481;52.588;22.472;2023-12-20T04:04:42;5.70;;;2.00;;
34035;SDS011;63481;52.588;22.472;2023-12-20T04:09:44;2.20;;;1.50;;
34035;SDS011;63481;52.588;22.472;2023-12-20T04:14:46;2.90;;;1.80;;
34035;SDS011;63481;52.588;22.472;2023-12-20T04:19:48;2.60;;;1.80;;
34035;SDS011;63481;52.588;22.472;2023-12-20T04:24:51;3.90;;;2.40;;
34035;SDS011;63481;52.588;22.472;2023-12-20T04:29:53;2.70;;;1.70;;
34035;SDS011;63481;52.588;22.472;2023-12-20T04:34:55;3.50;;;1.60;;
34035;SDS011;63481;52.588;22.472;2023-12-20T04:39:57;4.30;;;2.30;;
34035;SDS011;63481;52.588;22.472;2023-12-20T04:44:58;2.30;;;1.70;;
34035;SDS011;63481;52.588;22.472;2023-12-20T04:50:01;4.60;;;2.80;;
34035;SDS011;63481;52.588;22.472;2023-12-20T04:55:03;4.90;;;2.40;;
34035;SDS011;63481;52.588;22.472;2023-12-20T05:00:06;3.50;;;2.10;;
34035;SDS011;63481;52.588;22.472;2023-12-20T05:05:10;4.70;;;2.00;;
34035;SDS011;63481;52.588;22.472;2023-12-20T05:10:12;6.00;;;2.00;;
34035;SDS011;63481;52.588;22.472;2023-12-20T05:15:14;3.10;;;1.90;;
34035;SDS011;63481;52.588;22.472;2023-12-20T05:20:16;3.70;;;2.00;;
34035;SDS011;63481;52.588;22.472;2023-12-20T05:25:18;3.90;;;2.10;;
34035;SDS011;63481;52.588;22.472;2023-12-20T05:30:20;6.00;;;2.80;;
34035;SDS011;63481;52.588;22.472;2023-12-20T05:35:22;3.10;;;1.70;;
34035;SDS011;63481;52.588;22.472;2023-12-20T05:40:25;5.40;;;2.80;;
34035;SDS011;63481;52.588;22.472;2023-12-20T05:45:26;7.30;;;3.20;;
34035;SDS011;63481;52.588;22.472;2023-12-20T05:50:28;5.40;;;2.50;;
34035;SDS011;63481;52.588;22.472;2023-12-20T05:55:30;4.20;;;2.70;;
34035;SDS011;63481;52.588;22.472;2023-12-20T06:00:32;5.00;;;2.50;;
34035;SDS011;63481;52.588;22.472;2023-12-20T06:05:35;5.60;;;3.00;;
34035;SDS011;63481;52.588;22.472;2023-12-20T06:10:36;6.50;;;2.80;;
34035;SDS011;63481;52.588;22.472;2023-12-20T06:15:38;6.30;;;3.20;;
34035;SDS011;63481;52.588;22.472;2023-12-20T06:20:41;6.50;;;2.90;;
34035;SDS011;63481;52.588;22.472;2023-12-20T06:25:43;7.10;;;3.30;;
34035;SDS011;63481;52.588;22.472;2023-12-20T06:30:46;5.40;;;2.40;;
34035;SDS011;63481;52.588;22.472;2023-12-20T06:35:50;6.60;;;3.10;;
34035;SDS011;63481;52.588;22.472;2023-12-20T06:40:52;6.30;;;2.90;;
34035;SDS011;63481;52.588;22.472;2023-12-20T06:45:55;6.10;;;2.80;;
34035;SDS011;63481;52.588;22.472;2023-12-20T06:50:59;10.30;;;4.30;;
34035;SDS011;63481;52.588;22.472;2023-12-20T06:56:02;4.70;;;2.80;;
34035;SDS011;63481;52.588;22.472;2023-12-20T07:01:04;4.60;;;2.10;;
34035;SDS011;63481;52.588;22.472;2023-12-20T07:06:07;4.20;;;2.50;;
34035;SDS011;63481;52.588;22.472;2023-12-20T07:11:09;2.30;;;1.70;;
34035;SDS011;63481;52.588;22.472;2023-12-20T07:16:11;3.50;;;2.00;;
34035;SDS011;63481;52.588;22.472;2023-12-20T07:21:13;6.80;;;2.50;;
34035;SDS011;63481;52.588;22.472;2023-12-20T07:26:15;3.20;;;2.10;;
34035;SDS011;63481;52.588;22.472;2023-12-20T07:31:17;7.00;;;3.60;;
34035;SDS011;63481;52.588;22.472;2023-12-20T07:36:20;5.20;;;2.30;;
34035;SDS011;63481;52.588;22.472;2023-12-20T07:41:22;7.30;;;2.90;;
34035;SDS011;63481;52.588;22.472;2023-12-20T07:46:25;7.80;;;3.60;;
34035;SDS011;63481;52.588;22.472;2023-12-20T07:51:27;5.20;;;2.80;;
34035;SDS011;63481;52.588;22.472;2023-12-20T07:56:29;7.00;;;3.20;;
34035;SDS011;63481;52.588;22.472;2023-12-20T08:01:31;5.60;;;3.10;;
34035;SDS011;63481;52.588;22.472;2023-12-20T08:06:33;6.80;;;2.90;;
34035;SDS011;63481;52.588;22.472;2023-12-20T08:11:35;6.00;;;3.10;;
34035;SDS011;63481;52.588;22.472;2023-12-20T08:16:37;7.10;;;3.50;;
34035;SDS011;63481;52.588;22.472;2023-12-20T08:21:39;5.30;;;2.90;;
34035;SDS011;63481;52.588;22.472;2023-12-20T08:26:41;5.80;;;2.90;;
34035;SDS011;63481;52.588;22.472;2023-12-20T08:31:43;5.60;;;2.80;;
34035;SDS011;63481;52.588;22.472;2023-12-20T08:36:45;5.60;;;3.00;;
34035;SDS011;63481;52.588;22.472;2023-12-20T08:41:47;6.40;;;3.10;;
34035;SDS011;63481;52.588;22.472;2023-12-20T08:46:48;6.50;;;2.80;;
34035;SDS011;63481;52.588;22.472;2023-12-20T08:51:51;5.20;;;3.20;;
34035;SDS011;63481;52.588;22.472;2023-12-20T08:56:53;6.10;;;3.20;;
34035;SDS011;63481;52.588;22.472;2023-12-20T09:01:55;7.20;;;3.10;;
34035;SDS011;63481;52.588;22.472;2023-12-20T09:06:59;11.90;;;2.90;;
34035;SDS011;63481;52.588;22.472;2023-12-20T09:12:02;7.20;;;3.20;;
34035;SDS011;63481;52.588;22.472;2023-12-20T09:17:04;7.30;;;3.30;;
34035;SDS011;63481;52.588;22.472;2023-12-20T09:22:06;7.30;;;3.20;;
34035;SDS011;63481;52.588;22.472;2023-12-20T09:27:09;5.50;;;2.30;;
34035;SDS011;63481;52.588;22.472;2023-12-20T09:32:11;6.70;;;3.40;;
34035;SDS011;63481;52.588;22.472;2023-12-20T09:37:13;7.90;;;3.90;;
34035;SDS011;63481;52.588;22.472;2023-12-20T09:42:16;7.00;;;3.90;;
34035;SDS011;63481;52.588;22.472;2023-12-20T09:47:23;7.00;;;3.80;;
34035;SDS011;63481;52.588;22.472;2023-12-20T09:52:26;7.60;;;4.00;;
34035;SDS011;63481;52.588;22.472;2023-12-20T09:57:28;11.00;;;4.70;;
34035;SDS011;63481;52.588;22.472;2023-12-20T10:02:30;6.30;;;3.50;;
34035;SDS011;63481;52.588;22.472;2023-12-20T10:07:34;7.50;;;3.70;;
34035;SDS011;63481;52.588;22.472;2023-12-20T10:12:36;9.40;;;3.80;;
34035;SDS011;63481;52.588;22.472;2023-12-20T10:17:38;9.30;;;4.00;;
34035;SDS011;63481;52.588;22.472;2023-12-20T10:22:41;7.50;;;3.60;;
34035;SDS011;63481;52.588;22.472;2023-12-20T10:27:43;7.40;;;3.40;;
34035;SDS011;63481;52.588;22.472;2023-12-20T10:32:45;5.90;;;3.30;;
34035;SDS011;63481;52.588;22.472;2023-12-20T10:37:47;6.00;;;3.50;;
34035;SDS011;63481;52.588;22.472;2023-12-20T10:42:49;5.60;;;3.00;;
34035;SDS011;63481;52.588;22.472;2023-12-20T10:47:53;6.30;;;3.10;;
34035;SDS011;63481;52.588;22.472;2023-12-20T10:52:55;5.70;;;3.50;;
34035;SDS011;63481;52.588;22.472;2023-12-20T10:58:01;5.70;;;2.80;;
34035;SDS011;63481;52.588;22.472;2023-12-20T11:03:09;6.00;;;3.20;;
34035;SDS011;63481;52.588;22.472;2023-12-20T11:08:14;6.10;;;3.10;;
34035;SDS011;63481;52.588;22.472;2023-12-20T11:13:41;6.30;;;3.20;;
34035;SDS011;63481;52.588;22.472;2023-12-20T11:18:50;5.00;;;2.20;;
34035;SDS011;63481;52.588;22.472;2023-12-20T11:23:53;5.30;;;2.80;;
34035;SDS011;63481;52.588;22.472;2023-12-20T11:34:39;5.30;;;2.70;;
34035;SDS011;63481;52.588;22.472;2023-12-20T11:39:43;6.60;;;3.20;;
34035;SDS011;63481;52.588;22.472;2023-12-20T11:44:45;8.00;;;3.80;;
34035;SDS011;63481;52.588;22.472;2023-12-20T11:49:48;4.90;;;2.80;;
34035;SDS011;63481;52.588;22.472;2023-12-20T11:54:50;5.30;;;2.80;;
34035;SDS011;63481;52.588;22.472;2023-12-20T11:59:53;7.30;;;2.80;;
34035;SDS011;63481;52.588;22.472;2023-12-20T12:04:55;7.70;;;3.70;;
34035;SDS011;63481;52.588;22.472;2023-12-20T12:09:58;4.50;;;2.30;;
34035;SDS011;63481;52.588;22.472;2023-12-20T12:15:00;10.00;;;3.60;;
34035;SDS011;63481;52.588;22.472;2023-12-20T12:20:03;4.00;;;2.50;;
34035;SDS011;63481;52.588;22.472;2023-12-20T12:25:10;5.70;;;3.00;;
34035;SDS011;63481;52.588;22.472;2023-12-20T12:30:12;4.60;;;2.30;;
34035;SDS011;63481;52.588;22.472;2023-12-20T12:35:19;5.30;;;2.60;;
34035;SDS011;63481;52.588;22.472;2023-12-20T12:40:21;6.30;;;2.30;;
34035;SDS011;63481;52.588;22.472;2023-12-20T12:45:24;3.70;;;2.40;;
34035;SDS011;63481;52.588;22.472;2023-12-20T12:50:26;3.20;;;2.00;;
34035;SDS011;63481;52.588;22.472;2023-12-20T12:55:30;6.40;;;3.50;;
34035;SDS011;63481;52.588;22.472;2023-12-20T13:00:32;3.80;;;2.60;;
34035;SDS011;63481;52.588;22.472;2023-12-20T13:05:34;7.00;;;2.60;;
34035;SDS011;63481;52.588;22.472;2023-12-20T13:10:37;5.90;;;2.70;;
34035;SDS011;63481;52.588;22.472;2023-12-20T13:15:39;5.70;;;3.10;;
34035;SDS011;63481;52.588;22.472;2023-12-20T13:20:41;6.90;;;3.30;;
34035;SDS011;63481;52.588;22.472;2023-12-20T13:25:44;5.10;;;2.20;;
34035;SDS011;63481;52.588;22.472;2023-12-20T13:30:49;3.00;;;1.90;;
34035;SDS011;63481;52.588;22.472;2023-12-20T13:35:51;4.60;;;2.50;;
34035;SDS011;63481;52.588;22.472;2023-12-20T13:40:54;6.80;;;3.00;;
34035;SDS011;63481;52.588;22.472;2023-12-20T13:45:56;8.10;;;2.90;;
34035;SDS011;63481;52.588;22.472;2023-12-20T13:50:58;6.50;;;3.10;;
34035;SDS011;63481;52.588;22.472;2023-12-20T13:56:01;10.10;;;3.30;;
34035;SDS011;63481;52.588;22.472;2023-12-20T14:01:03;8.90;;;3.90;;
34035;SDS011;63481;52.588;22.472;2023-12-20T14:06:06;6.00;;;3.20;;
34035;SDS011;63481;52.588;22.472;2023-12-20T14:11:08;6.90;;;3.20;;
34035;SDS011;63481;52.588;22.472;2023-12-20T14:16:10;6.10;;;3.20;;
34035;SDS011;63481;52.588;22.472;2023-12-20T14:21:12;5.90;;;3.20;;
34035;SDS011;63481;52.588;22.472;2023-12-20T14:26:14;6.10;;;3.30;;
34035;SDS011;63481;52.588;22.472;2023-12-20T14:31:16;5.80;;;3.00;;
34035;SDS011;63481;52.588;22.472;2023-12-20T14:36:18;7.70;;;3.20;;
34035;SDS011;63481;52.588;22.472;2023-12-20T14:41:21;6.20;;;3.20;;
34035;SDS011;63481;52.588;22.472;2023-12-20T14:46:26;5.80;;;2.70;;
34035;SDS011;63481;52.588;22.472;2023-12-20T14:51:28;3.90;;;2.30;;
34035;SDS011;63481;52.588;22.472;2023-12-20T14:56:30;5.00;;;2.80;;
34035;SDS011;63481;52.588;22.472;2023-12-20T15:01:32;5.50;;;3.10;;
34035;SDS011;63481;52.588;22.472;2023-12-20T15:06:34;6.20;;;2.90;;
34035;SDS011;63481;52.588;22.472;2023-12-20T15:11:36;6.50;;;3.20;;
34035;SDS011;63481;52.588;22.472;2023-12-20T15:16:38;5.90;;;3.40;;
34035;SDS011;63481;52.588;22.472;2023-12-20T15:21:40;5.50;;;3.00;;
34035;SDS011;63481;52.588;22.472;2023-12-20T15:26:44;6.00;;;3.30;;
34035;SDS011;63481;52.588;22.472;2023-12-20T15:31:46;7.50;;;3.40;;
34035;SDS011;63481;52.588;22.472;2023-12-20T15:36:49;15.30;;;3.50;;
34035;SDS011;63481;52.588;22.472;2023-12-20T15:41:51;5.50;;;3.00;;
34035;SDS011;63481;52.588;22.472;2023-12-20T15:46:53;6.40;;;3.50;;
34035;SDS011;63481;52.588;22.472;2023-12-20T15:51:56;6.40;;;3.10;;
34035;SDS011;63481;52.588;22.472;2023-12-20T15:56:58;4.70;;;2.70;;
34035;SDS011;63481;52.588;22.472;2023-12-20T16:02:00;3.70;;;2.50;;
34035;SDS011;63481;52.588;22.472;2023-12-20T16:07:02;5.50;;;3.20;;
34035;SDS011;63481;52.588;22.472;2023-12-20T16:12:04;7.20;;;3.00;;
34035;SDS011;63481;52.588;22.472;2023-12-20T16:17:06;6.90;;;3.20;;
34035;SDS011;63481;52.588;22.472;2023-12-20T16:22:08;8.10;;;3.30;;
34035;SDS011;63481;52.588;22.472;2023-12-20T16:27:10;6.80;;;4.20;;
34035;SDS011;63481;52.588;22.472;2023-12-20T16:32:12;6.70;;;3.90;;
34035;SDS011;63481;52.588;22.472;2023-12-20T16:37:14;4.80;;;2.90;;
34035;SDS011;63481;52.588;22.472;2023-12-20T16:42:16;12.40;;;4.00;;
34035;SDS011;63481;52.588;22.472;2023-12-20T16:47:18;6.60;;;3.30;;
34035;SDS011;63481;52.588;22.472;2023-12-20T16:52:20;7.20;;;3.70;;
34035;SDS011;63481;52.588;22.472;2023-12-20T16:57:22;5.60;;;3.10;;
34035;SDS011;63481;52.588;22.472;2023-12-20T17:02:24;9.50;;;3.80;;
34035;SDS011;63481;52.588;22.472;2023-12-20T17:07:26;6.30;;;3.80;;
34035;SDS011;63481;52.588;22.472;2023-12-20T17:12:31;9.30;;;4.60;;
34035;SDS011;63481;52.588;22.472;2023-12-20T17:17:33;5.70;;;3.00;;
34035;SDS011;63481;52.588;22.472;2023-12-20T17:22:35;9.80;;;3.00;;
34035;SDS011;63481;52.588;22.472;2023-12-20T17:27:37;5.50;;;3.50;;
34035;SDS011;63481;52.588;22.472;2023-12-20T17:32:39;10.20;;;3.00;;
34035;SDS011;63481;52.588;22.472;2023-12-20T17:37:42;4.70;;;2.60;;
34035;SDS011;63481;52.588;22.472;2023-12-20T17:42:45;7.50;;;3.70;;
34035;SDS011;63481;52.588;22.472;2023-12-20T17:47:47;7.00;;;4.10;;
34035;SDS011;63481;52.588;22.472;2023-12-20T17:52:49;17.80;;;3.20;;
34035;SDS011;63481;52.588;22.472;2023-12-20T17:57:51;5.60;;;3.20;;
34035;SDS011;63481;52.588;22.472;2023-12-20T18:02:53;10.30;;;4.00;;
34035;SDS011;63481;52.588;22.472;2023-12-20T18:07:56;4.70;;;2.70;;
34035;SDS011;63481;52.588;22.472;2023-12-20T18:12:58;6.30;;;3.50;;
34035;SDS011;63481;52.588;22.472;2023-12-20T18:18:00;6.10;;;3.10;;
34035;SDS011;63481;52.588;22.472;2023-12-20T18:23:02;5.20;;;3.10;;
34035;SDS011;63481;52.588;22.472;2023-12-20T18:28:04;5.30;;;3.10;;
34035;SDS011;63481;52.588;22.472;2023-12-20T18:33:07;5.90;;;2.90;;
34035;SDS011;63481;52.588;22.472;2023-12-20T18:38:09;6.60;;;3.00;;
34035;SDS011;63481;52.588;22.472;2023-12-20T18:43:12;2.00;;;1.50;;
34035;SDS011;63481;52.588;22.472;2023-12-20T18:48:14;4.90;;;2.50;;
34035;SDS011;63481;52.588;22.472;2023-12-20T18:53:16;7.60;;;3.80;;
34035;SDS011;63481;52.588;22.472;2023-12-20T18:58:18;6.70;;;2.80;;
34035;SDS011;63481;52.588;22.472;2023-12-20T19:03:20;6.30;;;2.70;;
34035;SDS011;63481;52.588;22.472;2023-12-20T19:08:23;5.90;;;2.90;;
34035;SDS011;63481;52.588;22.472;2023-12-20T19:13:25;5.90;;;3.40;;
34035;SDS011;63481;52.588;22.472;2023-12-20T19:18:32;11.70;;;2.60;;
34035;SDS011;63481;52.588;22.472;2023-12-20T19:23:35;5.30;;;3.00;;
34035;SDS011;63481;52.588;22.472;2023-12-20T19:33:44;7.00;;;3.70;;
34035;SDS011;63481;52.588;22.472;2023-12-20T19:38:52;6.00;;;2.80;;
34035;SDS011;63481;52.588;22.472;2023-12-20T19:43:54;8.50;;;3.30;;
34035;SDS011;63481;52.588;22.472;2023-12-20T19:49:00;4.30;;;2.50;;
34035;SDS011;63481;52.588;22.472;2023-12-20T19:54:02;5.50;;;2.70;;
34035;SDS011;63481;52.588;22.472;2023-12-20T19:59:04;6.20;;;3.20;;
34035;SDS011;63481;52.588;22.472;2023-12-20T20:04:10;5.40;;;3.30;;
34035;SDS011;63481;52.588;22.472;2023-12-20T20:09:12;5.10;;;2.50;;
34035;SDS011;63481;52.588;22.472;2023-12-20T20:14:14;5.00;;;2.90;;
34035;SDS011;63481;52.588;22.472;2023-12-20T20:19:17;6.70;;;3.30;;
34035;SDS011;63481;52.588;22.472;2023-12-20T20:24:19;4.60;;;2.30;;
34035;SDS011;63481;52.588;22.472;2023-12-20T20:29:21;4.30;;;2.50;;
34035;SDS011;63481;52.588;22.472;2023-12-20T20:34:23;5.50;;;2.70;;
34035;SDS011;63481;52.588;22.472;2023-12-20T20:39:29;4.30;;;2.90;;
34035;SDS011;63481;52.588;22.472;2023-12-20T20:44:31;4.40;;;2.90;;
34035;SDS011;63481;52.588;22.472;2023-12-20T20:49:33;7.10;;;2.60;;
34035;SDS011;63481;52.588;22.472;2023-12-20T20:54:36;4.60;;;2.60;;
34035;SDS011;63481;52.588;22.472;2023-12-20T20:59:38;4.50;;;2.50;;
34035;SDS011;63481;52.588;22.472;2023-12-20T21:04:43;7.50;;;3.20;;
34035;SDS011;63481;52.588;22.472;2023-12-20T21:09:45;3.90;;;2.70;;
34035;SDS011;63481;52.588;22.472;2023-12-20T21:19:51;13.20;;;2.80;;
34035;SDS011;63481;52.588;22.472;2023-12-20T21:24:53;4.50;;;3.10;;
34035;SDS011;63481;52.588;22.472;2023-12-20T21:29:55;2.90;;;2.00;;
34035;SDS011;63481;52.588;22.472;2023-12-20T21:34:58;3.00;;;2.20;;
34035;SDS011;63481;52.588;22.472;2023-12-20T21:40:00;3.50;;;2.40;;
34035;SDS011;63481;52.588;22.472;2023-12-20T21:45:02;3.40;;;2.10;;
34035;SDS011;63481;52.588;22.472;2023-12-20T21:50:04;3.60;;;2.00;;
34035;SDS011;63481;52.588;22.472;2023-12-20T21:55:07;1.30;;;1.20;;
34035;SDS011;63481;52.588;22.472;2023-12-20T22:00:09;1.60;;;1.20;;
34035;SDS011;63481;52.588;22.472;2023-12-20T22:05:12;2.40;;;1.70;;
34035;SDS011;63481;52.588;22.472;2023-12-20T22:10:14;5.10;;;1.80;;
34035;SDS011;63481;52.588;22.472;2023-12-20T22:15:16;4.30;;;1.70;;
34035;SDS011;63481;52.588;22.472;2023-12-20T22:20:18;5.80;;;2.10;;
34035;SDS011;63481;52.588;22.472;2023-12-20T22:25:20;1.80;;;1.40;;
34035;SDS011;63481;52.588;22.472;2023-12-20T22:30:22;3.20;;;2.10;;
34035;SDS011;63481;52.588;22.472;2023-12-20T22:35:24;3.40;;;1.60;;
34035;SDS011;63481;52.588;22.472;2023-12-20T22:40:26;1.10;;;1.00;;
34035;SDS011;63481;52.588;22.472;2023-12-20T22:45:28;3.00;;;2.00;;
34035;SDS011;63481;52.588;22.472;2023-12-20T22:50:30;3.80;;;2.40;;
34035;SDS011;63481;52.588;22.472;2023-12-20T22:55:32;3.60;;;1.80;;
34035;SDS011;63481;52.588;22.472;2023-12-20T23:00:34;1.30;;;1.10;;
34035;SDS011;63481;52.588;22.472;2023-12-20T23:05:36;4.40;;;1.00;;
34035;SDS011;63481;52.588;22.472;2023-12-20T23:10:38;1.90;;;1.40;;
34035;SDS011;63481;52.588;22.472;2023-12-20T23:15:41;1.80;;;1.40;;
34035;SDS011;63481;52.588;22.472;2023-12-20T23:20:58;2.40;;;1.90;;
34035;SDS011;63481;52.588;22.472;2023-12-20T23:26:01;1.40;;;1.30;;
34035;SDS011;63481;52.588;22.472;2023-12-20T23:31:03;1.40;;;1.30;;
34035;SDS011;63481;52.588;22.472;2023-12-20T23:36:05;1.60;;;1.10;;
34035;SDS011;63481;52.588;22.472;2023-12-20T23:41:07;2.00;;;1.30;;
34035;SDS011;63481;52.588;22.472;2023-12-20T23:46:10;1.40;;;0.90;;
34035;SDS011;63481;52.588;22.472;2023-12-20T23:51:12;2.40;;;1.70;;
34035;SDS011;63481;52.588;22.472;2023-12-20T23:56:14;3.20;;;1.80;;
